AFR225 LFPG-GOBD
Flight info
| Callsign | AFR225 |
|---|---|
| Flight time | N/A |
| Altitude | 39000 |
| Route | AGOPA DCT ARKIP DCT ARMAL DCT ARTAX DCT BEBIX DCT LMG DCT UVELI DCT OSMOB DCT VAVIX DCT NETUK N857 GARVU N10 BANEV N857 BAN N10 CJN L27 NASOS N869 MGA M985 PIMOS N869 GALTO UN869 RBT/N0487F410 UN869 ADM UR975 DIDAN/N0486F400 UR975 SAKLI SAKLI1A |
| Aircraft | A359/H-SDE2E3GHIJ3J4J5LM1ORWXY/LB1D1 |
Departure
| Time | 2026-05-09 09:36 |
|---|---|
| Airport | Charles de Gaulle International Airport (LFPG) |
Arrival
| Time | N/A |
|---|---|
| Airport | Blaise Diagne International Airport (GOBD) |
| Time | Latitude | Longitude | Altitude | Speed | Heading |
|---|---|---|---|---|---|
| 2026-05-09 09:00 | 49.00768 | 2.58917 | 368 ft | 0 kts | 86° |
| 2026-05-09 09:12 | 49.00767 | 2.58898 | 361 ft | 3 kts | 84° |
| 2026-05-09 09:12 | 49.00766 | 2.58870 | 363 ft | 3 kts | 84° |
| 2026-05-09 09:13 | 49.00761 | 2.58840 | 363 ft | 3 kts | 54° |
| 2026-05-09 09:13 | 49.00747 | 2.58820 | 367 ft | 3 kts | 21° |
| 2026-05-09 09:13 | 49.00736 | 2.58815 | 365 ft | 0 kts | 1° |
| 2026-05-09 09:14 | 49.00744 | 2.58815 | 367 ft | 0 kts | 0° |
| 2026-05-09 09:15 | 49.00747 | 2.58815 | 368 ft | 3 kts | 0° |
| 2026-05-09 09:15 | 49.00779 | 2.58813 | 367 ft | 3 kts | 356° |
| 2026-05-09 09:15 | 49.00780 | 2.58813 | 367 ft | 0 kts | 356° |
| 2026-05-09 09:16 | 49.00799 | 2.58809 | 367 ft | 6 kts | 352° |
| 2026-05-09 09:16 | 49.00813 | 2.58806 | 368 ft | 0 kts | 351° |
| 2026-05-09 09:21 | 49.00828 | 2.58789 | 368 ft | 12 kts | 319° |
| 2026-05-09 09:21 | 49.00865 | 2.58661 | 367 ft | 14 kts | 310° |
| 2026-05-09 09:21 | 49.00920 | 2.58538 | 365 ft | 15 kts | 283° |
| 2026-05-09 09:21 | 49.00923 | 2.58435 | 367 ft | 0 kts | 267° |
| 2026-05-09 09:22 | 49.00923 | 2.58434 | 367 ft | 1 kts | 267° |
| 2026-05-09 09:22 | 49.00921 | 2.58385 | 368 ft | 7 kts | 265° |
| 2026-05-09 09:22 | 49.00929 | 2.58299 | 365 ft | 11 kts | 293° |
| 2026-05-09 09:22 | 49.01002 | 2.58231 | 367 ft | 14 kts | 351° |
| 2026-05-09 09:23 | 49.01105 | 2.58214 | 364 ft | 16 kts | 356° |
| 2026-05-09 09:23 | 49.01229 | 2.58198 | 364 ft | 20 kts | 353° |
| 2026-05-09 09:23 | 49.01391 | 2.58176 | 363 ft | 24 kts | 355° |
| 2026-05-09 09:23 | 49.01563 | 2.58154 | 361 ft | 25 kts | 355° |
| 2026-05-09 09:24 | 49.01741 | 2.58135 | 367 ft | 26 kts | 356° |
| 2026-05-09 09:24 | 49.01920 | 2.58089 | 369 ft | 26 kts | 339° |
| 2026-05-09 09:24 | 49.02052 | 2.57908 | 364 ft | 27 kts | 298° |
| 2026-05-09 09:24 | 49.02086 | 2.57628 | 363 ft | 27 kts | 265° |
| 2026-05-09 09:25 | 49.02073 | 2.57335 | 366 ft | 28 kts | 265° |
| 2026-05-09 09:25 | 49.02056 | 2.57032 | 365 ft | 29 kts | 264° |
| 2026-05-09 09:25 | 49.02039 | 2.56719 | 363 ft | 30 kts | 265° |
| 2026-05-09 09:25 | 49.02030 | 2.56550 | 366 ft | 10 kts | 265° |
| 2026-05-09 09:26 | 49.02021 | 2.56433 | 368 ft | 12 kts | 257° |
| 2026-05-09 09:26 | 49.01971 | 2.56318 | 369 ft | 17 kts | 217° |
| 2026-05-09 09:26 | 49.01918 | 2.56148 | 369 ft | 19 kts | 267° |
| 2026-05-09 09:26 | 49.01907 | 2.55941 | 361 ft | 20 kts | 265° |
| 2026-05-09 09:27 | 49.01894 | 2.55721 | 365 ft | 21 kts | 265° |
| 2026-05-09 09:27 | 49.01882 | 2.55486 | 367 ft | 23 kts | 265° |
| 2026-05-09 09:27 | 49.01870 | 2.55237 | 364 ft | 24 kts | 265° |
| 2026-05-09 09:27 | 49.01856 | 2.54974 | 366 ft | 25 kts | 264° |
| 2026-05-09 09:28 | 49.01840 | 2.54700 | 361 ft | 26 kts | 266° |
| 2026-05-09 09:28 | 49.01825 | 2.54415 | 365 ft | 27 kts | 265° |
| 2026-05-09 09:28 | 49.01810 | 2.54124 | 363 ft | 27 kts | 265° |
| 2026-05-09 09:28 | 49.01795 | 2.53842 | 366 ft | 23 kts | 265° |
| 2026-05-09 09:29 | 49.01781 | 2.53597 | 362 ft | 24 kts | 265° |
| 2026-05-09 09:29 | 49.01766 | 2.53340 | 362 ft | 25 kts | 265° |
| 2026-05-09 09:29 | 49.01754 | 2.53075 | 366 ft | 25 kts | 266° |
| 2026-05-09 09:29 | 49.01740 | 2.52800 | 367 ft | 26 kts | 264° |
| 2026-05-09 09:30 | 49.01725 | 2.52517 | 364 ft | 27 kts | 265° |
| 2026-05-09 09:30 | 49.01710 | 2.52220 | 366 ft | 29 kts | 265° |
| 2026-05-09 09:30 | 49.01692 | 2.51916 | 365 ft | 29 kts | 265° |
| 2026-05-09 09:30 | 49.01674 | 2.51607 | 366 ft | 30 kts | 265° |
| 2026-05-09 09:31 | 49.01666 | 2.51340 | 363 ft | 19 kts | 287° |
| 2026-05-09 09:31 | 49.01777 | 2.51271 | 361 ft | 18 kts | 354° |
| 2026-05-09 09:31 | 49.01908 | 2.51252 | 363 ft | 18 kts | 355° |
| 2026-05-09 09:32 | 49.01923 | 2.51251 | 365 ft | 0 kts | 358° |
| 2026-05-09 09:34 | 49.01929 | 2.51251 | 365 ft | 5 kts | 0° |
| 2026-05-09 09:34 | 49.02001 | 2.51294 | 369 ft | 17 kts | 41° |
| 2026-05-09 09:34 | 49.02067 | 2.51426 | 367 ft | 10 kts | 85° |
| 2026-05-09 09:36 | 49.02286 | 2.55481 | 1270 ft | 187 kts | 86° |
| 2026-05-09 09:36 | 49.02387 | 2.57558 | 2260 ft | 204 kts | 88° |
| 2026-05-09 09:36 | 49.02474 | 2.59731 | 3167 ft | 205 kts | 88° |
| 2026-05-09 09:37 | 49.02591 | 2.61920 | 3981 ft | 209 kts | 86° |
| 2026-05-09 09:37 | 49.02770 | 2.64099 | 4705 ft | 208 kts | 84° |
| 2026-05-09 09:37 | 49.02912 | 2.66380 | 5056 ft | 225 kts | 88° |
| 2026-05-09 09:37 | 49.03022 | 2.68855 | 5338 ft | 242 kts | 88° |
| 2026-05-09 09:38 | 49.03142 | 2.71509 | 5651 ft | 259 kts | 88° |
| 2026-05-09 09:38 | 49.03276 | 2.74297 | 6115 ft | 267 kts | 87° |
| 2026-05-09 09:38 | 49.03423 | 2.77153 | 6653 ft | 273 kts | 87° |
| 2026-05-09 09:38 | 49.03574 | 2.80064 | 7222 ft | 278 kts | 87° |
| 2026-05-09 09:39 | 49.03729 | 2.83003 | 7788 ft | 281 kts | 87° |
| 2026-05-09 09:39 | 49.03881 | 2.86010 | 8404 ft | 285 kts | 87° |
| 2026-05-09 09:39 | 49.04036 | 2.89042 | 9021 ft | 290 kts | 87° |
| 2026-05-09 09:39 | 49.04191 | 2.92124 | 9643 ft | 293 kts | 87° |
| 2026-05-09 09:40 | 49.04347 | 2.95244 | 10225 ft | 298 kts | 87° |
| 2026-05-09 09:40 | 49.04504 | 2.98425 | 10524 ft | 312 kts | 87° |
| 2026-05-09 09:40 | 49.04560 | 3.01807 | 10772 ft | 325 kts | 97° |
| 2026-05-09 09:40 | 49.03833 | 3.05105 | 11192 ft | 327 kts | 125° |
| 2026-05-09 09:41 | 49.02223 | 3.07480 | 11756 ft | 322 kts | 152° |
| 2026-05-09 09:41 | 49.00119 | 3.08509 | 12294 ft | 321 kts | 177° |
| 2026-05-09 09:41 | 48.97923 | 3.07996 | 12801 ft | 322 kts | 203° |
| 2026-05-09 09:41 | 48.96105 | 3.06051 | 13371 ft | 325 kts | 228° |
| 2026-05-09 09:42 | 48.94863 | 3.03163 | 13917 ft | 329 kts | 240° |
| 2026-05-09 09:42 | 48.93846 | 3.00038 | 14421 ft | 332 kts | 245° |
| 2026-05-09 09:42 | 48.92982 | 2.96770 | 14916 ft | 334 kts | 247° |
| 2026-05-09 09:42 | 48.92139 | 2.93459 | 15437 ft | 336 kts | 247° |
| 2026-05-09 09:43 | 48.91285 | 2.90136 | 15945 ft | 338 kts | 247° |
| 2026-05-09 09:43 | 48.90418 | 2.86802 | 16469 ft | 341 kts | 247° |
| 2026-05-09 09:43 | 48.89551 | 2.83491 | 16955 ft | 343 kts | 247° |
| 2026-05-09 09:43 | 48.88666 | 2.80122 | 17464 ft | 345 kts | 247° |
| 2026-05-09 09:44 | 48.87769 | 2.76723 | 17980 ft | 347 kts | 247° |
| 2026-05-09 09:44 | 48.86866 | 2.73308 | 18445 ft | 350 kts | 247° |
| 2026-05-09 09:44 | 48.85954 | 2.69869 | 18843 ft | 352 kts | 246° |
| 2026-05-09 09:44 | 48.85032 | 2.66397 | 19241 ft | 355 kts | 246° |
| 2026-05-09 09:45 | 48.84057 | 2.62936 | 19633 ft | 358 kts | 242° |
| 2026-05-09 09:45 | 48.82760 | 2.59712 | 20055 ft | 358 kts | 234° |
| 2026-05-09 09:45 | 48.81323 | 2.56618 | 20447 ft | 360 kts | 233° |
| 2026-05-09 09:45 | 48.79858 | 2.53517 | 20850 ft | 362 kts | 233° |
| 2026-05-09 09:46 | 48.78391 | 2.50404 | 21240 ft | 365 kts | 233° |
| 2026-05-09 09:46 | 48.76912 | 2.47265 | 21634 ft | 367 kts | 233° |
| 2026-05-09 09:46 | 48.75427 | 2.44108 | 22036 ft | 369 kts | 233° |
| 2026-05-09 09:46 | 48.73894 | 2.40977 | 22397 ft | 371 kts | 229° |
| 2026-05-09 09:47 | 48.72050 | 2.38242 | 22777 ft | 372 kts | 217° |
| 2026-05-09 09:47 | 48.69885 | 2.36070 | 23171 ft | 374 kts | 211° |
| 2026-05-09 09:47 | 48.67644 | 2.34063 | 23536 ft | 376 kts | 210° |
| 2026-05-09 09:47 | 48.65383 | 2.32056 | 23865 ft | 378 kts | 210° |
| 2026-05-09 09:48 | 48.63114 | 2.30035 | 24177 ft | 380 kts | 210° |
| 2026-05-09 09:48 | 48.60837 | 2.28001 | 24521 ft | 380 kts | 210° |
| 2026-05-09 09:48 | 48.58562 | 2.25963 | 24865 ft | 381 kts | 210° |
| 2026-05-09 09:48 | 48.56276 | 2.23916 | 25165 ft | 383 kts | 210° |
| 2026-05-09 09:49 | 48.53975 | 2.21855 | 25477 ft | 385 kts | 210° |
| 2026-05-09 09:49 | 48.51664 | 2.19788 | 25789 ft | 387 kts | 210° |
| 2026-05-09 09:49 | 48.49345 | 2.17736 | 26122 ft | 388 kts | 209° |
| 2026-05-09 09:49 | 48.47002 | 2.15677 | 26457 ft | 390 kts | 209° |
| 2026-05-09 09:50 | 48.44653 | 2.13616 | 26833 ft | 391 kts | 209° |
| 2026-05-09 09:50 | 48.42302 | 2.11556 | 27188 ft | 392 kts | 208° |
| 2026-05-09 09:50 | 48.39935 | 2.09486 | 27531 ft | 394 kts | 209° |
| 2026-05-09 09:50 | 48.37558 | 2.07405 | 27882 ft | 396 kts | 209° |
| 2026-05-09 09:51 | 48.35170 | 2.05316 | 28219 ft | 398 kts | 209° |
| 2026-05-09 09:51 | 48.32756 | 2.03261 | 28580 ft | 400 kts | 206° |
| 2026-05-09 09:51 | 48.30199 | 2.01620 | 28913 ft | 401 kts | 197° |
| 2026-05-09 09:51 | 48.27478 | 2.00665 | 29259 ft | 402 kts | 187° |
| 2026-05-09 09:52 | 48.24679 | 2.00427 | 29626 ft | 404 kts | 180° |
| 2026-05-09 09:52 | 48.21862 | 2.00503 | 29981 ft | 406 kts | 179° |
| 2026-05-09 09:52 | 48.19027 | 2.00616 | 30252 ft | 410 kts | 180° |
| 2026-05-09 09:52 | 48.16161 | 2.00720 | 30447 ft | 414 kts | 180° |
| 2026-05-09 09:53 | 48.13264 | 2.00814 | 30756 ft | 416 kts | 180° |
| 2026-05-09 09:53 | 48.10365 | 2.00904 | 31077 ft | 418 kts | 180° |
| 2026-05-09 09:53 | 48.07456 | 2.01007 | 31396 ft | 419 kts | 180° |
| 2026-05-09 09:53 | 48.04537 | 2.01155 | 31675 ft | 422 kts | 180° |
| 2026-05-09 09:54 | 48.01588 | 2.01331 | 31830 ft | 427 kts | 179° |
| 2026-05-09 09:54 | 47.98594 | 2.01520 | 31969 ft | 432 kts | 180° |
| 2026-05-09 09:54 | 47.95568 | 2.01713 | 32092 ft | 438 kts | 180° |
| 2026-05-09 09:54 | 47.92505 | 2.01904 | 32245 ft | 443 kts | 180° |
| 2026-05-09 09:55 | 47.89409 | 2.02092 | 32372 ft | 448 kts | 180° |
| 2026-05-09 09:55 | 47.86279 | 2.02280 | 32521 ft | 452 kts | 180° |
| 2026-05-09 09:55 | 47.83115 | 2.02467 | 32644 ft | 457 kts | 180° |
| 2026-05-09 09:56 | 47.76704 | 2.02848 | 32880 ft | 464 kts | 181° |
| 2026-05-09 09:56 | 47.73469 | 2.03040 | 33104 ft | 466 kts | 181° |
| 2026-05-09 09:56 | 47.70227 | 2.03232 | 33402 ft | 466 kts | 181° |
| 2026-05-09 09:56 | 47.66992 | 2.03423 | 33715 ft | 465 kts | 181° |
| 2026-05-09 09:57 | 47.63767 | 2.03613 | 34022 ft | 465 kts | 181° |
| 2026-05-09 09:57 | 47.60531 | 2.03801 | 34297 ft | 464 kts | 181° |
| 2026-05-09 09:57 | 47.57310 | 2.03986 | 34558 ft | 463 kts | 181° |
| 2026-05-09 09:57 | 47.54084 | 2.04173 | 34812 ft | 463 kts | 181° |
| 2026-05-09 09:58 | 47.50863 | 2.04356 | 35068 ft | 463 kts | 181° |
| 2026-05-09 09:58 | 47.47645 | 2.04539 | 35326 ft | 463 kts | 181° |
| 2026-05-09 09:58 | 47.44427 | 2.04721 | 35582 ft | 462 kts | 181° |
| 2026-05-09 09:58 | 47.41216 | 2.04903 | 35838 ft | 462 kts | 181° |
| 2026-05-09 09:59 | 47.38004 | 2.05085 | 36095 ft | 462 kts | 181° |
| 2026-05-09 09:59 | 47.34801 | 2.05111 | 36318 ft | 459 kts | 186° |
| 2026-05-09 09:59 | 47.31638 | 2.04637 | 36577 ft | 457 kts | 190° |
| 2026-05-09 09:59 | 47.28492 | 2.03950 | 36822 ft | 456 kts | 191° |
| 2026-05-09 10:00 | 47.25359 | 2.03184 | 37027 ft | 456 kts | 192° |
| 2026-05-09 10:00 | 47.22235 | 2.02380 | 37254 ft | 456 kts | 192° |
| 2026-05-09 10:00 | 47.19104 | 2.01564 | 37466 ft | 456 kts | 192° |
| 2026-05-09 10:00 | 47.15981 | 2.00752 | 37665 ft | 456 kts | 192° |
| 2026-05-09 10:01 | 47.12858 | 1.99948 | 37896 ft | 456 kts | 191° |
| 2026-05-09 10:01 | 47.09730 | 1.99151 | 38091 ft | 456 kts | 191° |
| 2026-05-09 10:01 | 47.06641 | 1.98370 | 38268 ft | 456 kts | 191° |
| 2026-05-09 10:01 | 47.03512 | 1.97583 | 38445 ft | 457 kts | 191° |
| 2026-05-09 10:02 | 47.00382 | 1.96798 | 38614 ft | 457 kts | 190° |
| 2026-05-09 10:02 | 46.97250 | 1.96013 | 38751 ft | 457 kts | 190° |
| 2026-05-09 10:02 | 46.94111 | 1.95227 | 38860 ft | 458 kts | 191° |
| 2026-05-09 10:03 | 46.87813 | 1.93652 | 38974 ft | 461 kts | 191° |
| 2026-05-09 10:03 | 46.81496 | 1.92077 | 38975 ft | 460 kts | 191° |
| 2026-05-09 10:04 | 46.75182 | 1.90506 | 38976 ft | 460 kts | 191° |
| 2026-05-09 10:04 | 46.68866 | 1.88938 | 38973 ft | 460 kts | 191° |
| 2026-05-09 10:05 | 46.62559 | 1.87377 | 38981 ft | 460 kts | 190° |
| 2026-05-09 10:05 | 46.56242 | 1.85816 | 38978 ft | 460 kts | 190° |
| 2026-05-09 10:06 | 46.49925 | 1.84258 | 38973 ft | 460 kts | 191° |
| 2026-05-09 10:06 | 46.43607 | 1.82705 | 38974 ft | 460 kts | 190° |
| 2026-05-09 10:07 | 46.37291 | 1.81155 | 38976 ft | 460 kts | 190° |
| 2026-05-09 10:07 | 46.30985 | 1.79560 | 38977 ft | 459 kts | 193° |
| 2026-05-09 10:08 | 46.25001 | 1.76442 | 38974 ft | 458 kts | 208° |
| 2026-05-09 10:08 | 46.19819 | 1.71110 | 38981 ft | 458 kts | 219° |
| 2026-05-09 10:09 | 46.14991 | 1.65082 | 38968 ft | 459 kts | 221° |
| 2026-05-09 10:09 | 46.10217 | 1.59004 | 38979 ft | 456 kts | 220° |
| 2026-05-09 10:10 | 46.05427 | 1.52987 | 38986 ft | 457 kts | 220° |
| 2026-05-09 10:10 | 46.00610 | 1.47005 | 38981 ft | 458 kts | 220° |
| 2026-05-09 10:11 | 45.95964 | 1.40743 | 38978 ft | 459 kts | 228° |
| 2026-05-09 10:11 | 45.92444 | 1.33125 | 38995 ft | 458 kts | 239° |
| 2026-05-09 10:12 | 45.89510 | 1.25017 | 38991 ft | 458 kts | 241° |
| 2026-05-09 10:12 | 45.86661 | 1.16850 | 38999 ft | 458 kts | 241° |
| 2026-05-09 10:13 | 45.83776 | 1.08679 | 38994 ft | 461 kts | 240° |
| 2026-05-09 10:13 | 45.80107 | 1.01140 | 38992 ft | 463 kts | 225° |
| 2026-05-09 10:14 | 45.75340 | 0.94887 | 38983 ft | 465 kts | 219° |
| 2026-05-09 10:14 | 45.70372 | 0.88986 | 38965 ft | 463 kts | 219° |
| 2026-05-09 10:15 | 45.66227 | 0.84118 | 38966 ft | 463 kts | 219° |
| 2026-05-09 10:15 | 45.60464 | 0.77305 | 38978 ft | 463 kts | 219° |
| 2026-05-09 10:16 | 45.56309 | 0.72372 | 38957 ft | 464 kts | 219° |
| 2026-05-09 10:16 | 45.51347 | 0.66486 | 38962 ft | 463 kts | 219° |
| 2026-05-09 10:17 | 45.46425 | 0.60662 | 38955 ft | 462 kts | 219° |
| 2026-05-09 10:17 | 45.41476 | 0.54820 | 38956 ft | 462 kts | 219° |
| 2026-05-09 10:18 | 45.36519 | 0.48984 | 38953 ft | 462 kts | 219° |
| 2026-05-09 10:18 | 45.31569 | 0.43170 | 38953 ft | 461 kts | 218° |
| 2026-05-09 10:19 | 45.26626 | 0.37377 | 38961 ft | 461 kts | 218° |
| 2026-05-09 10:19 | 45.21671 | 0.31585 | 38945 ft | 462 kts | 218° |
| 2026-05-09 10:20 | 45.16703 | 0.25791 | 38939 ft | 462 kts | 218° |
| 2026-05-09 10:20 | 45.11740 | 0.20015 | 38939 ft | 461 kts | 218° |
| 2026-05-09 10:21 | 45.06780 | 0.14257 | 38938 ft | 461 kts | 218° |
| 2026-05-09 10:21 | 45.01811 | 0.08502 | 38938 ft | 461 kts | 218° |
| 2026-05-09 10:22 | 44.96846 | 0.02765 | 38938 ft | 461 kts | 218° |
| 2026-05-09 10:22 | 44.91872 | -0.02970 | 38938 ft | 462 kts | 218° |
| 2026-05-09 10:23 | 44.86886 | -0.08705 | 38931 ft | 463 kts | 218° |
| 2026-05-09 10:23 | 44.81889 | -0.14439 | 38930 ft | 463 kts | 218° |
| 2026-05-09 10:24 | 44.76890 | -0.20162 | 38931 ft | 463 kts | 218° |
| 2026-05-09 10:24 | 44.71889 | -0.25874 | 38931 ft | 463 kts | 218° |
| 2026-05-09 10:25 | 44.66884 | -0.31579 | 38926 ft | 463 kts | 218° |
| 2026-05-09 10:25 | 44.61758 | -0.37061 | 38927 ft | 463 kts | 214° |
| 2026-05-09 10:26 | 44.56433 | -0.42148 | 38926 ft | 463 kts | 213° |
| 2026-05-09 10:26 | 44.51086 | -0.47177 | 38916 ft | 463 kts | 213° |
| 2026-05-09 10:27 | 44.45755 | -0.52244 | 38916 ft | 463 kts | 213° |
| 2026-05-09 10:27 | 44.40438 | -0.57326 | 38910 ft | 463 kts | 214° |
| 2026-05-09 10:28 | 44.35117 | -0.62411 | 38906 ft | 463 kts | 214° |
| 2026-05-09 10:28 | 44.29795 | -0.67484 | 38906 ft | 463 kts | 214° |
| 2026-05-09 10:29 | 44.24451 | -0.72505 | 38909 ft | 463 kts | 213° |
| 2026-05-09 10:29 | 44.19073 | -0.77448 | 38912 ft | 463 kts | 213° |
| 2026-05-09 10:30 | 44.13683 | -0.82380 | 38904 ft | 465 kts | 213° |
| 2026-05-09 10:30 | 44.08277 | -0.87327 | 38904 ft | 465 kts | 213° |
| 2026-05-09 10:31 | 44.02872 | -0.92268 | 38902 ft | 465 kts | 213° |
| 2026-05-09 10:31 | 43.97466 | -0.97201 | 38894 ft | 465 kts | 213° |
| 2026-05-09 10:32 | 43.92062 | -1.02122 | 38889 ft | 464 kts | 213° |
| 2026-05-09 10:32 | 43.86656 | -1.07033 | 38885 ft | 464 kts | 213° |
| 2026-05-09 10:33 | 43.81251 | -1.11932 | 38884 ft | 464 kts | 212° |
| 2026-05-09 10:33 | 43.75854 | -1.16813 | 38889 ft | 463 kts | 213° |
| 2026-05-09 10:34 | 43.70465 | -1.21676 | 38884 ft | 463 kts | 212° |
| 2026-05-09 10:34 | 43.62374 | -1.28958 | 38881 ft | 463 kts | 212° |
| 2026-05-09 10:35 | 43.56984 | -1.33795 | 38884 ft | 462 kts | 212° |
| 2026-05-09 10:35 | 43.51631 | -1.38589 | 38884 ft | 462 kts | 212° |
| 2026-05-09 10:36 | 43.46214 | -1.43431 | 38884 ft | 461 kts | 212° |
| 2026-05-09 10:36 | 43.40822 | -1.48239 | 38878 ft | 461 kts | 212° |
| 2026-05-09 10:37 | 43.35428 | -1.53038 | 38910 ft | 462 kts | 212° |
| 2026-05-09 10:37 | 43.30024 | -1.57812 | 38886 ft | 462 kts | 211° |
| 2026-05-09 10:38 | 43.24180 | -1.61409 | 38889 ft | 462 kts | 197° |
| 2026-05-09 10:38 | 43.17853 | -1.63014 | 38888 ft | 463 kts | 189° |
| 2026-05-09 10:39 | 43.11453 | -1.64056 | 38897 ft | 463 kts | 188° |
| 2026-05-09 10:39 | 43.05046 | -1.65034 | 38907 ft | 463 kts | 188° |
| 2026-05-09 10:40 | 42.98642 | -1.66052 | 38924 ft | 461 kts | 189° |
| 2026-05-09 10:40 | 42.92338 | -1.67083 | 38926 ft | 458 kts | 189° |
| 2026-05-09 10:41 | 42.86016 | -1.68125 | 38965 ft | 457 kts | 189° |
| 2026-05-09 10:41 | 42.79696 | -1.69165 | 38966 ft | 457 kts | 189° |
| 2026-05-09 10:42 | 42.73457 | -1.70695 | 38965 ft | 455 kts | 198° |
| 2026-05-09 10:42 | 42.67629 | -1.73967 | 38965 ft | 454 kts | 206° |
| 2026-05-09 10:43 | 42.61966 | -1.77766 | 38961 ft | 454 kts | 207° |
| 2026-05-09 10:43 | 42.56325 | -1.81625 | 38960 ft | 454 kts | 207° |
| 2026-05-09 10:44 | 42.50675 | -1.85447 | 38960 ft | 454 kts | 207° |
| 2026-05-09 10:44 | 42.45010 | -1.89242 | 38956 ft | 454 kts | 207° |
| 2026-05-09 10:46 | 42.30837 | -1.98679 | 38946 ft | 454 kts | 207° |
| 2026-05-09 10:46 | 42.25166 | -2.02450 | 38946 ft | 454 kts | 207° |
| 2026-05-09 10:47 | 42.19493 | -2.06202 | 38943 ft | 454 kts | 206° |
| 2026-05-09 10:47 | 42.13819 | -2.09946 | 38939 ft | 453 kts | 206° |
| 2026-05-09 10:48 | 42.08166 | -2.13674 | 38942 ft | 453 kts | 206° |
| 2026-05-09 10:48 | 42.02510 | -2.17398 | 38934 ft | 452 kts | 206° |
| 2026-05-09 10:49 | 41.96858 | -2.21112 | 38937 ft | 452 kts | 206° |
| 2026-05-09 10:49 | 41.91215 | -2.24812 | 38941 ft | 450 kts | 206° |
| 2026-05-09 10:50 | 41.85588 | -2.28494 | 38941 ft | 450 kts | 206° |
| 2026-05-09 10:50 | 41.79945 | -2.32180 | 38933 ft | 453 kts | 206° |
| 2026-05-09 10:51 | 41.74259 | -2.35887 | 38932 ft | 455 kts | 206° |
| 2026-05-09 10:51 | 41.68561 | -2.39594 | 38933 ft | 454 kts | 206° |
| 2026-05-09 10:52 | 41.62870 | -2.43288 | 38933 ft | 454 kts | 206° |
| 2026-05-09 10:52 | 41.57190 | -2.46969 | 38928 ft | 454 kts | 206° |
| 2026-05-09 10:53 | 41.51503 | -2.50646 | 38924 ft | 454 kts | 206° |
| 2026-05-09 10:53 | 41.45816 | -2.54316 | 38926 ft | 453 kts | 206° |
| 2026-05-09 10:54 | 41.40139 | -2.57972 | 38923 ft | 453 kts | 206° |
| 2026-05-09 10:54 | 41.34334 | -2.61237 | 38917 ft | 454 kts | 198° |
| 2026-05-09 10:55 | 41.28090 | -2.62530 | 38919 ft | 459 kts | 183° |
| 2026-05-09 10:55 | 41.22768 | -2.62280 | 38920 ft | 461 kts | 179° |
| 2026-05-09 10:56 | 41.16358 | -2.61652 | 38920 ft | 462 kts | 179° |
| 2026-05-09 10:56 | 41.09949 | -2.61002 | 38911 ft | 462 kts | 179° |
| 2026-05-09 10:57 | 41.03535 | -2.60402 | 38916 ft | 462 kts | 179° |
| 2026-05-09 10:57 | 40.97109 | -2.59829 | 38914 ft | 463 kts | 179° |
| 2026-05-09 10:58 | 40.90680 | -2.59254 | 38917 ft | 463 kts | 179° |
| 2026-05-09 10:58 | 40.84247 | -2.58674 | 38920 ft | 464 kts | 179° |
| 2026-05-09 10:59 | 40.77811 | -2.58094 | 38919 ft | 464 kts | 179° |
| 2026-05-09 10:59 | 40.71364 | -2.57512 | 38919 ft | 464 kts | 179° |
| 2026-05-09 11:00 | 40.64919 | -2.56935 | 38924 ft | 464 kts | 179° |
| 2026-05-09 11:00 | 40.58477 | -2.56359 | 38928 ft | 464 kts | 179° |
| 2026-05-09 11:01 | 40.52035 | -2.55784 | 38924 ft | 464 kts | 179° |
| 2026-05-09 11:01 | 40.45589 | -2.55209 | 38925 ft | 464 kts | 179° |
| 2026-05-09 11:02 | 40.39159 | -2.54951 | 38930 ft | 461 kts | 187° |
| 2026-05-09 11:02 | 40.32931 | -2.56612 | 38938 ft | 456 kts | 200° |
| 2026-05-09 11:03 | 40.26978 | -2.59458 | 38934 ft | 455 kts | 202° |
| 2026-05-09 11:03 | 40.21075 | -2.62492 | 38927 ft | 456 kts | 203° |
| 2026-05-09 11:04 | 40.15158 | -2.65514 | 38938 ft | 457 kts | 202° |
| 2026-05-09 11:04 | 40.09215 | -2.68504 | 38943 ft | 459 kts | 202° |
| 2026-05-09 11:05 | 40.03227 | -2.71492 | 38945 ft | 461 kts | 202° |
| 2026-05-09 11:05 | 39.97221 | -2.74479 | 38945 ft | 462 kts | 202° |
| 2026-05-09 11:06 | 39.91205 | -2.77469 | 38939 ft | 463 kts | 202° |
| 2026-05-09 11:06 | 39.85179 | -2.80460 | 38945 ft | 463 kts | 202° |
| 2026-05-09 11:07 | 39.79155 | -2.83444 | 38944 ft | 463 kts | 202° |
| 2026-05-09 11:07 | 39.73132 | -2.86421 | 38947 ft | 464 kts | 203° |
| 2026-05-09 11:08 | 39.67091 | -2.89402 | 38956 ft | 465 kts | 203° |
| 2026-05-09 11:08 | 39.61036 | -2.92385 | 38933 ft | 466 kts | 203° |
| 2026-05-09 11:09 | 39.54967 | -2.95373 | 38936 ft | 466 kts | 203° |
| 2026-05-09 11:09 | 39.48904 | -2.98357 | 38925 ft | 466 kts | 203° |
| 2026-05-09 11:10 | 39.42849 | -3.01334 | 38932 ft | 466 kts | 203° |
| 2026-05-09 11:10 | 39.36783 | -3.04304 | 38933 ft | 466 kts | 203° |
| 2026-05-09 11:11 | 39.30715 | -3.07260 | 38904 ft | 466 kts | 203° |
| 2026-05-09 11:11 | 39.24654 | -3.10204 | 38926 ft | 466 kts | 203° |
| 2026-05-09 11:12 | 39.18581 | -3.13151 | 38917 ft | 466 kts | 203° |
| 2026-05-09 11:12 | 39.12553 | -3.16071 | 38932 ft | 466 kts | 203° |
| 2026-05-09 11:13 | 39.06490 | -3.19003 | 38922 ft | 466 kts | 204° |
| 2026-05-09 11:13 | 39.00416 | -3.21934 | 38920 ft | 466 kts | 204° |
| 2026-05-09 11:14 | 38.94340 | -3.24861 | 38927 ft | 466 kts | 204° |
| 2026-05-09 11:14 | 38.88264 | -3.27782 | 38929 ft | 466 kts | 204° |
| 2026-05-09 11:15 | 38.82183 | -3.30699 | 38917 ft | 466 kts | 204° |
| 2026-05-09 11:15 | 38.76108 | -3.33608 | 38927 ft | 466 kts | 204° |
| 2026-05-09 11:16 | 38.70039 | -3.36511 | 38925 ft | 466 kts | 204° |
| 2026-05-09 11:16 | 38.63961 | -3.39412 | 38923 ft | 466 kts | 204° |
| 2026-05-09 11:17 | 38.57888 | -3.42304 | 38922 ft | 466 kts | 204° |
| 2026-05-09 11:17 | 38.51818 | -3.45191 | 38931 ft | 465 kts | 204° |
| 2026-05-09 11:18 | 38.45765 | -3.48063 | 38927 ft | 464 kts | 204° |
| 2026-05-09 11:18 | 38.39719 | -3.50929 | 38930 ft | 464 kts | 204° |
| 2026-05-09 11:19 | 38.33673 | -3.53789 | 38925 ft | 464 kts | 204° |
| 2026-05-09 11:19 | 38.27628 | -3.56643 | 38923 ft | 463 kts | 204° |
| 2026-05-09 11:20 | 38.21575 | -3.59495 | 38923 ft | 464 kts | 204° |
| 2026-05-09 11:20 | 38.15530 | -3.62347 | 38925 ft | 463 kts | 205° |
| 2026-05-09 11:21 | 38.09603 | -3.65529 | 38920 ft | 462 kts | 208° |
| 2026-05-09 11:21 | 38.03748 | -3.68913 | 38922 ft | 463 kts | 208° |
| 2026-05-09 11:22 | 37.97883 | -3.72290 | 38918 ft | 463 kts | 208° |
| 2026-05-09 11:22 | 37.92002 | -3.75627 | 38922 ft | 463 kts | 207° |
| 2026-05-09 11:23 | 37.86112 | -3.78943 | 38917 ft | 464 kts | 208° |
| 2026-05-09 11:23 | 37.80211 | -3.82259 | 38923 ft | 465 kts | 207° |
| 2026-05-09 11:24 | 37.74272 | -3.85593 | 38924 ft | 468 kts | 207° |
| 2026-05-09 11:24 | 37.68303 | -3.88938 | 38923 ft | 470 kts | 207° |
| 2026-05-09 11:25 | 37.62328 | -3.92276 | 38922 ft | 469 kts | 208° |
| 2026-05-09 11:25 | 37.56357 | -3.95610 | 38923 ft | 469 kts | 208° |
| 2026-05-09 11:26 | 37.50392 | -3.98936 | 38934 ft | 469 kts | 208° |
| 2026-05-09 11:26 | 37.44425 | -4.02256 | 38939 ft | 469 kts | 208° |
| 2026-05-09 11:27 | 37.38462 | -4.05566 | 38935 ft | 469 kts | 208° |
| 2026-05-09 11:27 | 37.32489 | -4.08877 | 38946 ft | 469 kts | 208° |
| 2026-05-09 11:28 | 37.26527 | -4.12178 | 38951 ft | 469 kts | 208° |
| 2026-05-09 11:28 | 37.20586 | -4.15461 | 38952 ft | 469 kts | 208° |
| 2026-05-09 11:29 | 37.14610 | -4.18757 | 38943 ft | 469 kts | 208° |
| 2026-05-09 11:29 | 37.08640 | -4.22043 | 38954 ft | 468 kts | 208° |
| 2026-05-09 11:30 | 37.02679 | -4.25320 | 38961 ft | 468 kts | 208° |
| 2026-05-09 11:30 | 36.96716 | -4.28590 | 38957 ft | 467 kts | 208° |
| 2026-05-09 11:31 | 36.90761 | -4.31853 | 38945 ft | 468 kts | 208° |
| 2026-05-09 11:31 | 36.84810 | -4.35107 | 38961 ft | 467 kts | 209° |
| 2026-05-09 11:32 | 36.79088 | -4.38848 | 38969 ft | 462 kts | 216° |
| 2026-05-09 11:32 | 36.73640 | -4.43091 | 38964 ft | 461 kts | 217° |
| 2026-05-09 11:33 | 36.68246 | -4.47405 | 38966 ft | 461 kts | 217° |
| 2026-05-09 11:33 | 36.60163 | -4.53848 | 38967 ft | 459 kts | 217° |
| 2026-05-09 11:34 | 36.54783 | -4.58108 | 38974 ft | 458 kts | 217° |
| 2026-05-09 11:34 | 36.49405 | -4.62355 | 38968 ft | 457 kts | 217° |
| 2026-05-09 11:35 | 36.44032 | -4.66592 | 38971 ft | 457 kts | 217° |
| 2026-05-09 11:35 | 36.38663 | -4.70818 | 38964 ft | 456 kts | 217° |
| 2026-05-09 11:36 | 36.33301 | -4.75033 | 38972 ft | 456 kts | 217° |
| 2026-05-09 11:36 | 36.27940 | -4.79241 | 38975 ft | 456 kts | 217° |
| 2026-05-09 11:37 | 36.22585 | -4.83437 | 38979 ft | 456 kts | 217° |
| 2026-05-09 11:37 | 36.17227 | -4.87628 | 38980 ft | 456 kts | 217° |
| 2026-05-09 11:38 | 36.12780 | -4.91116 | 38968 ft | 455 kts | 218° |
| 2026-05-09 11:38 | 36.06601 | -4.96005 | 38976 ft | 453 kts | 218° |
| 2026-05-09 11:39 | 36.01298 | -5.00204 | 38976 ft | 453 kts | 218° |
| 2026-05-09 11:40 | 35.94202 | -5.05805 | 38967 ft | 453 kts | 218° |
| 2026-05-09 11:40 | 35.88892 | -5.09986 | 38965 ft | 453 kts | 218° |
| 2026-05-09 11:41 | 35.83585 | -5.14168 | 38950 ft | 452 kts | 218° |
| 2026-05-09 11:41 | 35.78488 | -5.18649 | 38940 ft | 449 kts | 221° |
| 2026-05-09 11:42 | 35.73518 | -5.23316 | 38942 ft | 449 kts | 222° |
| 2026-05-09 11:42 | 35.68571 | -5.27945 | 38936 ft | 449 kts | 222° |
| 2026-05-09 11:43 | 35.63569 | -5.32565 | 38915 ft | 450 kts | 221° |
| 2026-05-09 11:43 | 35.58566 | -5.37154 | 38932 ft | 448 kts | 221° |
| 2026-05-09 11:44 | 35.53556 | -5.41740 | 38936 ft | 448 kts | 221° |
| 2026-05-09 11:44 | 35.48557 | -5.46312 | 38934 ft | 448 kts | 222° |
| 2026-05-09 11:45 | 35.43551 | -5.50884 | 38940 ft | 448 kts | 222° |
| 2026-05-09 11:45 | 35.38547 | -5.55446 | 38946 ft | 449 kts | 221° |
| 2026-05-09 11:46 | 35.33546 | -5.59993 | 38956 ft | 446 kts | 222° |
| 2026-05-09 11:46 | 35.28572 | -5.64514 | 38971 ft | 445 kts | 222° |
| 2026-05-09 11:47 | 35.23601 | -5.69026 | 38973 ft | 445 kts | 222° |
| 2026-05-09 11:47 | 35.18628 | -5.73535 | 38983 ft | 446 kts | 222° |
| 2026-05-09 11:48 | 35.13642 | -5.78047 | 38974 ft | 446 kts | 222° |
| 2026-05-09 11:48 | 35.08657 | -5.82547 | 38973 ft | 444 kts | 222° |
| 2026-05-09 11:49 | 35.03695 | -5.87021 | 38987 ft | 443 kts | 222° |
| 2026-05-09 11:49 | 34.98742 | -5.91480 | 38983 ft | 442 kts | 222° |
| 2026-05-09 11:50 | 34.93787 | -5.95937 | 38981 ft | 442 kts | 222° |
| 2026-05-09 11:50 | 34.88832 | -6.00385 | 38978 ft | 443 kts | 222° |
| 2026-05-09 11:51 | 34.83873 | -6.04830 | 38948 ft | 442 kts | 222° |
| 2026-05-09 11:51 | 34.78920 | -6.09261 | 38977 ft | 441 kts | 222° |
| 2026-05-09 11:52 | 34.73971 | -6.13683 | 38977 ft | 441 kts | 222° |
| 2026-05-09 11:52 | 34.69025 | -6.18096 | 38977 ft | 441 kts | 222° |
| 2026-05-09 11:53 | 34.64076 | -6.22505 | 38972 ft | 441 kts | 222° |
| 2026-05-09 11:53 | 34.59127 | -6.26907 | 38971 ft | 441 kts | 222° |
| 2026-05-09 11:54 | 34.54214 | -6.31270 | 38967 ft | 440 kts | 222° |
| 2026-05-09 11:54 | 34.49241 | -6.35680 | 38967 ft | 440 kts | 222° |
| 2026-05-09 11:55 | 34.44303 | -6.40053 | 38967 ft | 440 kts | 222° |
| 2026-05-09 11:56 | 34.29466 | -6.53152 | 38936 ft | 440 kts | 222° |
| 2026-05-09 11:57 | 34.24519 | -6.57506 | 38964 ft | 440 kts | 222° |
| 2026-05-09 11:57 | 34.19569 | -6.61855 | 38965 ft | 440 kts | 222° |
| 2026-05-09 11:58 | 34.14653 | -6.66170 | 38965 ft | 440 kts | 222° |
| 2026-05-09 11:58 | 34.09669 | -6.70538 | 38965 ft | 440 kts | 222° |
| 2026-05-09 11:59 | 34.04715 | -6.74862 | 38965 ft | 440 kts | 221° |
| 2026-05-09 11:59 | 33.99677 | -6.79066 | 38966 ft | 441 kts | 221° |
| 2026-05-09 12:00 | 33.94607 | -6.83204 | 38965 ft | 440 kts | 220° |
| 2026-05-09 12:00 | 33.89563 | -6.87317 | 38970 ft | 441 kts | 221° |
| 2026-05-09 12:01 | 33.84489 | -6.91474 | 38973 ft | 441 kts | 221° |
| 2026-05-09 12:01 | 33.79415 | -6.95630 | 38971 ft | 441 kts | 221° |
| 2026-05-09 12:02 | 33.74340 | -6.99779 | 38954 ft | 441 kts | 221° |
| 2026-05-09 12:02 | 33.69270 | -7.03917 | 38995 ft | 440 kts | 221° |
| 2026-05-09 12:03 | 33.64206 | -7.08045 | 38997 ft | 440 kts | 221° |
| 2026-05-09 12:03 | 33.59140 | -7.12169 | 38982 ft | 440 kts | 221° |
| 2026-05-09 12:04 | 33.54071 | -7.16290 | 38981 ft | 440 kts | 221° |
| 2026-05-09 12:04 | 33.49002 | -7.20404 | 38981 ft | 440 kts | 221° |
| 2026-05-09 12:05 | 33.43939 | -7.24503 | 38982 ft | 439 kts | 222° |
| 2026-05-09 12:05 | 33.38886 | -7.28592 | 38989 ft | 438 kts | 222° |
| 2026-05-09 12:06 | 33.33839 | -7.32673 | 38986 ft | 438 kts | 222° |
| 2026-05-09 12:06 | 33.28786 | -7.36752 | 38985 ft | 438 kts | 222° |
| 2026-05-09 12:07 | 33.23732 | -7.40825 | 38985 ft | 438 kts | 222° |
| 2026-05-09 12:07 | 33.18709 | -7.44867 | 38985 ft | 438 kts | 222° |
| 2026-05-09 12:08 | 33.13657 | -7.48926 | 38984 ft | 438 kts | 222° |
| 2026-05-09 12:08 | 33.08515 | -7.52865 | 38986 ft | 441 kts | 219° |
| 2026-05-09 12:09 | 33.03217 | -7.56582 | 38988 ft | 442 kts | 218° |
| 2026-05-09 12:09 | 32.97901 | -7.60264 | 38988 ft | 442 kts | 219° |
| 2026-05-09 12:10 | 32.87306 | -7.67675 | 38990 ft | 441 kts | 219° |
| 2026-05-09 12:11 | 32.82028 | -7.71379 | 38993 ft | 441 kts | 219° |
| 2026-05-09 12:11 | 32.76744 | -7.75081 | 38999 ft | 441 kts | 219° |
| 2026-05-09 12:12 | 32.71466 | -7.78772 | 38990 ft | 440 kts | 219° |
| 2026-05-09 12:12 | 32.66181 | -7.82462 | 39001 ft | 440 kts | 219° |
| 2026-05-09 12:13 | 32.60900 | -7.86142 | 38994 ft | 440 kts | 219° |
| 2026-05-09 12:13 | 32.55624 | -7.89816 | 39002 ft | 439 kts | 219° |
| 2026-05-09 12:14 | 32.50352 | -7.93484 | 39000 ft | 439 kts | 219° |
| 2026-05-09 12:14 | 32.45080 | -7.97145 | 39005 ft | 439 kts | 219° |
| 2026-05-09 12:15 | 32.39834 | -8.00782 | 39001 ft | 439 kts | 219° |
| 2026-05-09 12:15 | 32.34563 | -8.04430 | 38980 ft | 438 kts | 220° |
| 2026-05-09 12:16 | 32.29294 | -8.08071 | 39001 ft | 438 kts | 220° |
| 2026-05-09 12:16 | 32.24036 | -8.11703 | 39001 ft | 438 kts | 220° |
| 2026-05-09 12:17 | 32.18776 | -8.15332 | 39000 ft | 438 kts | 220° |
| 2026-05-09 12:17 | 32.13510 | -8.18959 | 39003 ft | 438 kts | 220° |
| 2026-05-09 12:18 | 32.08223 | -8.22551 | 39004 ft | 439 kts | 219° |
| 2026-05-09 12:18 | 32.02926 | -8.26100 | 39002 ft | 438 kts | 219° |
| 2026-05-09 12:19 | 31.97630 | -8.29646 | 39004 ft | 437 kts | 219° |
| 2026-05-09 12:19 | 31.92341 | -8.33188 | 39004 ft | 437 kts | 219° |
| 2026-05-09 12:20 | 31.87051 | -8.36729 | 39003 ft | 438 kts | 219° |
| 2026-05-09 12:20 | 31.81752 | -8.40271 | 39004 ft | 438 kts | 219° |
| 2026-05-09 12:21 | 31.76459 | -8.43802 | 38992 ft | 437 kts | 220° |
| 2026-05-09 12:21 | 31.71173 | -8.47325 | 38999 ft | 437 kts | 220° |